createdAt,value
2023-05-21T00:08:30.957Z,4.30
2023-05-21T00:28:30.659Z,3.10
2023-05-21T00:48:30.380Z,3.20
2023-05-21T01:08:30.105Z,1.90
2023-05-21T01:28:30.051Z,4.10
2023-05-21T01:48:29.559Z,3.50
2023-05-21T02:08:29.276Z,4.80
2023-05-21T02:28:28.997Z,4.00
2023-05-21T02:48:28.714Z,3.70
2023-05-21T03:08:28.444Z,4.00
2023-05-21T03:28:28.160Z,4.10
2023-05-21T03:48:27.848Z,2.30
2023-05-21T04:08:27.594Z,2.40
2023-05-21T04:28:27.270Z,4.60
2023-05-21T04:48:27.250Z,4.10
2023-05-21T05:08:26.763Z,3.10
2023-05-21T05:28:26.473Z,4.90
2023-05-21T05:48:26.197Z,3.60
2023-05-21T06:08:25.886Z,5.20
2023-05-21T06:28:25.599Z,5.00
2023-05-21T06:48:25.352Z,5.00
2023-05-21T07:08:25.172Z,5.60
2023-05-21T07:28:24.765Z,8.30
2023-05-21T07:48:24.502Z,6.30
2023-05-21T08:08:24.239Z,6.80
2023-05-21T08:28:23.947Z,8.40
2023-05-21T08:48:23.657Z,9.40
2023-05-21T09:08:23.379Z,15.20
2023-05-21T09:28:23.126Z,15.00
2023-05-21T09:48:22.824Z,16.00
2023-05-21T10:08:22.550Z,11.40
2023-05-21T10:28:22.325Z,10.00
2023-05-21T10:48:22.005Z,12.80
2023-05-21T11:08:21.761Z,12.40
2023-05-21T11:28:21.461Z,15.20
2023-05-21T11:48:21.210Z,18.90
2023-05-21T12:08:20.896Z,18.60
2023-05-21T12:28:20.693Z,15.10
2023-05-21T12:48:20.399Z,12.50
2023-05-21T13:08:20.081Z,13.00
2023-05-21T13:28:19.844Z,13.30
2023-05-21T13:48:19.691Z,11.90
2023-05-21T14:08:19.268Z,12.90
2023-05-21T14:28:19.004Z,10.70
2023-05-21T14:48:18.727Z,14.50
2023-05-21T15:08:18.511Z,13.20
2023-05-21T15:28:18.188Z,12.80
2023-05-21T15:48:17.918Z,12.20
2023-05-21T16:08:17.672Z,13.10
2023-05-21T16:28:17.384Z,12.80
2023-05-21T16:48:17.150Z,10.10
2023-05-21T17:08:16.845Z,12.80
2023-05-21T17:28:16.580Z,10.50
2023-05-21T17:48:16.399Z,11.10
2023-05-21T18:08:16.063Z,11.10
2023-05-21T18:28:15.724Z,11.10
2023-05-21T18:48:15.462Z,8.30
2023-05-21T19:08:15.198Z,9.60
2023-05-21T19:28:14.917Z,7.10
2023-05-21T19:48:14.692Z,8.00
2023-05-21T20:08:14.372Z,12.10
2023-05-21T20:28:14.104Z,12.70
2023-05-21T20:48:13.823Z,11.30
2023-05-21T21:08:13.571Z,10.20
2023-05-21T21:28:13.262Z,12.10
2023-05-21T21:48:13.023Z,11.90
2023-05-21T22:08:12.716Z,12.60
2023-05-21T22:28:12.439Z,12.70
2023-05-21T22:48:12.220Z,12.00
2023-05-21T23:08:11.887Z,13.30
2023-05-21T23:28:11.622Z,13.30
2023-05-21T23:48:11.484Z,14.20
